sensor_id;sensor_type;location;lat;lon;timestamp;P1;durP1;ratioP1;P2;durP2;ratioP2
8480;SDS011;4277;51.354;6.740;2023-03-23T00:01:47;4.23;;;2.37;;
8480;SDS011;4277;51.354;6.740;2023-03-23T00:04:14;3.23;;;2.10;;
8480;SDS011;4277;51.354;6.740;2023-03-23T00:06:40;2.80;;;2.07;;
8480;SDS011;4277;51.354;6.740;2023-03-23T00:09:07;4.17;;;2.33;;
8480;SDS011;4277;51.354;6.740;2023-03-23T00:11:34;3.30;;;2.00;;
8480;SDS011;4277;51.354;6.740;2023-03-23T00:14:00;3.03;;;2.20;;
8480;SDS011;4277;51.354;6.740;2023-03-23T00:16:27;7.90;;;2.40;;
8480;SDS011;4277;51.354;6.740;2023-03-23T00:18:58;3.83;;;2.00;;
8480;SDS011;4277;51.354;6.740;2023-03-23T00:21:26;3.30;;;1.83;;
8480;SDS011;4277;51.354;6.740;2023-03-23T00:24:00;3.63;;;2.23;;
8480;SDS011;4277;51.354;6.740;2023-03-23T00:26:27;4.27;;;2.20;;
8480;SDS011;4277;51.354;6.740;2023-03-23T00:28:54;3.10;;;2.30;;
8480;SDS011;4277;51.354;6.740;2023-03-23T00:31:20;3.80;;;2.60;;
8480;SDS011;4277;51.354;6.740;2023-03-23T00:33:46;5.20;;;2.30;;
8480;SDS011;4277;51.354;6.740;2023-03-23T00:36:12;6.47;;;2.30;;
8480;SDS011;4277;51.354;6.740;2023-03-23T00:38:39;3.87;;;2.20;;
8480;SDS011;4277;51.354;6.740;2023-03-23T00:41:07;4.67;;;2.30;;
8480;SDS011;4277;51.354;6.740;2023-03-23T00:43:33;4.27;;;2.30;;
8480;SDS011;4277;51.354;6.740;2023-03-23T00:46:03;2.60;;;2.07;;
8480;SDS011;4277;51.354;6.740;2023-03-23T00:48:34;3.27;;;2.30;;
8480;SDS011;4277;51.354;6.740;2023-03-23T00:51:00;2.50;;;2.30;;
8480;SDS011;4277;51.354;6.740;2023-03-23T00:53:31;4.80;;;2.57;;
8480;SDS011;4277;51.354;6.740;2023-03-23T00:55:57;3.50;;;2.50;;
8480;SDS011;4277;51.354;6.740;2023-03-23T00:58:23;2.83;;;2.10;;
8480;SDS011;4277;51.354;6.740;2023-03-23T01:00:48;4.10;;;2.50;;
8480;SDS011;4277;51.354;6.740;2023-03-23T01:03:15;4.60;;;2.47;;
8480;SDS011;4277;51.354;6.740;2023-03-23T01:05:43;2.57;;;2.33;;
8480;SDS011;4277;51.354;6.740;2023-03-23T01:08:11;3.93;;;2.10;;
8480;SDS011;4277;51.354;6.740;2023-03-23T01:10:38;2.90;;;2.33;;
8480;SDS011;4277;51.354;6.740;2023-03-23T01:13:05;4.53;;;2.50;;
8480;SDS011;4277;51.354;6.740;2023-03-23T01:15:31;3.53;;;2.23;;
8480;SDS011;4277;51.354;6.740;2023-03-23T01:17:57;3.07;;;2.40;;
8480;SDS011;4277;51.354;6.740;2023-03-23T01:20:24;3.43;;;2.10;;
8480;SDS011;4277;51.354;6.740;2023-03-23T01:22:51;4.70;;;2.40;;
8480;SDS011;4277;51.354;6.740;2023-03-23T01:25:18;2.23;;;2.00;;
8480;SDS011;4277;51.354;6.740;2023-03-23T01:27:44;4.33;;;2.40;;
8480;SDS011;4277;51.354;6.740;2023-03-23T01:30:10;3.43;;;2.20;;
8480;SDS011;4277;51.354;6.740;2023-03-23T01:32:37;3.37;;;2.13;;
8480;SDS011;4277;51.354;6.740;2023-03-23T01:35:03;2.53;;;2.23;;
8480;SDS011;4277;51.354;6.740;2023-03-23T01:37:29;2.93;;;2.00;;
8480;SDS011;4277;51.354;6.740;2023-03-23T01:39:55;3.00;;;2.40;;
8480;SDS011;4277;51.354;6.740;2023-03-23T01:42:23;2.90;;;2.10;;
8480;SDS011;4277;51.354;6.740;2023-03-23T01:47:15;7.27;;;2.43;;
8480;SDS011;4277;51.354;6.740;2023-03-23T01:49:45;2.93;;;2.40;;
8480;SDS011;4277;51.354;6.740;2023-03-23T01:52:13;2.37;;;2.17;;
8480;SDS011;4277;51.354;6.740;2023-03-23T01:54:42;2.77;;;2.23;;
8480;SDS011;4277;51.354;6.740;2023-03-23T01:57:11;2.33;;;2.10;;
8480;SDS011;4277;51.354;6.740;2023-03-23T01:59:38;3.50;;;2.00;;
8480;SDS011;4277;51.354;6.740;2023-03-23T02:02:07;2.37;;;2.10;;
8480;SDS011;4277;51.354;6.740;2023-03-23T02:04:35;2.57;;;2.23;;
8480;SDS011;4277;51.354;6.740;2023-03-23T02:07:02;2.43;;;2.00;;
8480;SDS011;4277;51.354;6.740;2023-03-23T02:09:28;4.03;;;2.43;;
8480;SDS011;4277;51.354;6.740;2023-03-23T02:11:55;5.97;;;2.30;;
8480;SDS011;4277;51.354;6.740;2023-03-23T02:14:21;2.27;;;2.07;;
8480;SDS011;4277;51.354;6.740;2023-03-23T02:16:55;3.10;;;2.20;;
8480;SDS011;4277;51.354;6.740;2023-03-23T02:27:08;3.83;;;2.40;;
8480;SDS011;4277;51.354;6.740;2023-03-23T02:34:53;2.70;;;2.50;;
8480;SDS011;4277;51.354;6.740;2023-03-23T02:40:12;3.07;;;2.33;;
8480;SDS011;4277;51.354;6.740;2023-03-23T02:42:41;2.60;;;2.40;;
8480;SDS011;4277;51.354;6.740;2023-03-23T02:45:09;3.30;;;2.40;;
8480;SDS011;4277;51.354;6.740;2023-03-23T02:47:36;3.90;;;2.57;;
8480;SDS011;4277;51.354;6.740;2023-03-23T02:50:03;2.57;;;2.37;;
8480;SDS011;4277;51.354;6.740;2023-03-23T02:52:31;3.53;;;2.60;;
8480;SDS011;4277;51.354;6.740;2023-03-23T02:54:58;2.60;;;2.40;;
8480;SDS011;4277;51.354;6.740;2023-03-23T02:57:27;3.20;;;2.50;;
8480;SDS011;4277;51.354;6.740;2023-03-23T02:59:53;4.33;;;2.70;;
8480;SDS011;4277;51.354;6.740;2023-03-23T03:02:23;4.23;;;2.50;;
8480;SDS011;4277;51.354;6.740;2023-03-23T03:04:52;2.77;;;2.17;;
8480;SDS011;4277;51.354;6.740;2023-03-23T03:07:23;3.77;;;2.33;;
8480;SDS011;4277;51.354;6.740;2023-03-23T03:10:01;2.47;;;2.17;;
8480;SDS011;4277;51.354;6.740;2023-03-23T03:12:41;2.60;;;2.20;;
8480;SDS011;4277;51.354;6.740;2023-03-23T03:17:36;3.13;;;2.37;;
8480;SDS011;4277;51.354;6.740;2023-03-23T03:20:04;2.20;;;2.00;;
8480;SDS011;4277;51.354;6.740;2023-03-23T03:22:35;3.83;;;2.07;;
8480;SDS011;4277;51.354;6.740;2023-03-23T03:25:03;3.23;;;1.97;;
8480;SDS011;4277;51.354;6.740;2023-03-23T03:27:29;3.07;;;2.10;;
8480;SDS011;4277;51.354;6.740;2023-03-23T03:29:57;2.43;;;2.10;;
8480;SDS011;4277;51.354;6.740;2023-03-23T03:32:26;1.80;;;1.70;;
8480;SDS011;4277;51.354;6.740;2023-03-23T03:34:56;3.10;;;2.00;;
8480;SDS011;4277;51.354;6.740;2023-03-23T03:37:22;1.80;;;1.70;;
8480;SDS011;4277;51.354;6.740;2023-03-23T03:39:48;1.80;;;1.70;;
8480;SDS011;4277;51.354;6.740;2023-03-23T03:42:14;2.20;;;1.87;;
8480;SDS011;4277;51.354;6.740;2023-03-23T03:44:40;3.83;;;1.80;;
8480;SDS011;4277;51.354;6.740;2023-03-23T03:47:05;1.70;;;1.60;;
8480;SDS011;4277;51.354;6.740;2023-03-23T03:49:31;2.03;;;1.70;;
8480;SDS011;4277;51.354;6.740;2023-03-23T03:51:57;3.33;;;2.13;;
8480;SDS011;4277;51.354;6.740;2023-03-23T03:54:24;2.13;;;1.80;;
8480;SDS011;4277;51.354;6.740;2023-03-23T03:56:50;1.87;;;1.70;;
8480;SDS011;4277;51.354;6.740;2023-03-23T03:59:16;2.87;;;1.77;;
8480;SDS011;4277;51.354;6.740;2023-03-23T04:01:42;3.13;;;1.80;;
8480;SDS011;4277;51.354;6.740;2023-03-23T04:04:08;3.73;;;1.80;;
8480;SDS011;4277;51.354;6.740;2023-03-23T04:06:34;2.37;;;1.70;;
8480;SDS011;4277;51.354;6.740;2023-03-23T04:09:03;1.70;;;1.60;;
8480;SDS011;4277;51.354;6.740;2023-03-23T04:11:33;2.50;;;1.80;;
8480;SDS011;4277;51.354;6.740;2023-03-23T04:13:59;2.33;;;1.80;;
8480;SDS011;4277;51.354;6.740;2023-03-23T04:16:25;2.83;;;1.87;;
8480;SDS011;4277;51.354;6.740;2023-03-23T04:18:54;2.40;;;1.70;;
8480;SDS011;4277;51.354;6.740;2023-03-23T04:21:21;1.90;;;1.80;;
8480;SDS011;4277;51.354;6.740;2023-03-23T04:23:47;2.10;;;1.70;;
8480;SDS011;4277;51.354;6.740;2023-03-23T04:26:13;2.03;;;1.67;;
8480;SDS011;4277;51.354;6.740;2023-03-23T04:28:39;1.70;;;1.60;;
8480;SDS011;4277;51.354;6.740;2023-03-23T04:31:06;2.63;;;1.87;;
8480;SDS011;4277;51.354;6.740;2023-03-23T04:33:31;2.03;;;1.83;;
8480;SDS011;4277;51.354;6.740;2023-03-23T04:35:59;1.70;;;1.60;;
8480;SDS011;4277;51.354;6.740;2023-03-23T04:38:28;1.97;;;1.77;;
8480;SDS011;4277;51.354;6.740;2023-03-23T04:40:54;2.13;;;1.93;;
8480;SDS011;4277;51.354;6.740;2023-03-23T04:43:22;3.17;;;1.90;;
8480;SDS011;4277;51.354;6.740;2023-03-23T04:45:52;3.60;;;1.70;;
8480;SDS011;4277;51.354;6.740;2023-03-23T04:48:20;1.77;;;1.67;;
8480;SDS011;4277;51.354;6.740;2023-03-23T04:50:47;2.63;;;1.83;;
8480;SDS011;4277;51.354;6.740;2023-03-23T04:53:15;2.00;;;1.80;;
8480;SDS011;4277;51.354;6.740;2023-03-23T04:55:42;2.40;;;2.17;;
8480;SDS011;4277;51.354;6.740;2023-03-23T04:58:08;2.43;;;2.03;;
8480;SDS011;4277;51.354;6.740;2023-03-23T05:00:35;2.27;;;1.80;;
8480;SDS011;4277;51.354;6.740;2023-03-23T05:03:01;3.03;;;1.90;;
8480;SDS011;4277;51.354;6.740;2023-03-23T05:05:27;1.83;;;1.70;;
8480;SDS011;4277;51.354;6.740;2023-03-23T05:07:55;2.20;;;2.00;;
8480;SDS011;4277;51.354;6.740;2023-03-23T05:10:22;2.37;;;2.00;;
8480;SDS011;4277;51.354;6.740;2023-03-23T05:12:48;1.90;;;1.80;;
8480;SDS011;4277;51.354;6.740;2023-03-23T05:15:15;2.00;;;1.90;;
8480;SDS011;4277;51.354;6.740;2023-03-23T05:17:41;4.53;;;1.93;;
8480;SDS011;4277;51.354;6.740;2023-03-23T05:20:11;2.73;;;2.00;;
8480;SDS011;4277;51.354;6.740;2023-03-23T05:22:37;2.20;;;2.00;;
8480;SDS011;4277;51.354;6.740;2023-03-23T05:25:04;2.33;;;2.10;;
8480;SDS011;4277;51.354;6.740;2023-03-23T05:27:31;2.77;;;2.50;;
8480;SDS011;4277;51.354;6.740;2023-03-23T05:29:57;2.17;;;1.97;;
8480;SDS011;4277;51.354;6.740;2023-03-23T05:32:26;2.63;;;2.23;;
8480;SDS011;4277;51.354;6.740;2023-03-23T05:34:56;2.70;;;2.07;;
8480;SDS011;4277;51.354;6.740;2023-03-23T05:37:23;5.23;;;2.30;;
8480;SDS011;4277;51.354;6.740;2023-03-23T05:39:49;2.43;;;2.10;;
8480;SDS011;4277;51.354;6.740;2023-03-23T05:42:18;3.00;;;2.20;;
8480;SDS011;4277;51.354;6.740;2023-03-23T05:44:44;3.70;;;2.23;;
8480;SDS011;4277;51.354;6.740;2023-03-23T05:47:10;2.50;;;2.10;;
8480;SDS011;4277;51.354;6.740;2023-03-23T05:49:37;3.77;;;2.30;;
8480;SDS011;4277;51.354;6.740;2023-03-23T05:52:03;4.67;;;2.27;;
8480;SDS011;4277;51.354;6.740;2023-03-23T05:54:29;3.00;;;2.20;;
8480;SDS011;4277;51.354;6.740;2023-03-23T05:56:55;3.03;;;2.10;;
8480;SDS011;4277;51.354;6.740;2023-03-23T05:59:21;4.03;;;2.07;;
8480;SDS011;4277;51.354;6.740;2023-03-23T06:01:47;2.70;;;2.20;;
8480;SDS011;4277;51.354;6.740;2023-03-23T06:04:14;2.83;;;2.23;;
8480;SDS011;4277;51.354;6.740;2023-03-23T06:06:41;3.63;;;2.30;;
8480;SDS011;4277;51.354;6.740;2023-03-23T06:09:08;2.77;;;2.30;;
8480;SDS011;4277;51.354;6.740;2023-03-23T06:11:34;3.67;;;2.17;;
8480;SDS011;4277;51.354;6.740;2023-03-23T06:14:00;2.47;;;2.20;;
8480;SDS011;4277;51.354;6.740;2023-03-23T06:16:26;2.63;;;2.43;;
8480;SDS011;4277;51.354;6.740;2023-03-23T06:18:53;2.60;;;2.30;;
8480;SDS011;4277;51.354;6.740;2023-03-23T06:21:19;3.63;;;2.60;;
8480;SDS011;4277;51.354;6.740;2023-03-23T06:23:46;4.13;;;2.43;;
8480;SDS011;4277;51.354;6.740;2023-03-23T06:26:13;2.83;;;2.30;;
8480;SDS011;4277;51.354;6.740;2023-03-23T06:28:41;2.47;;;2.17;;
8480;SDS011;4277;51.354;6.740;2023-03-23T06:31:07;5.37;;;2.30;;
8480;SDS011;4277;51.354;6.740;2023-03-23T06:33:34;3.97;;;2.27;;
8480;SDS011;4277;51.354;6.740;2023-03-23T06:36:00;3.77;;;2.20;;
8480;SDS011;4277;51.354;6.740;2023-03-23T06:38:26;3.07;;;2.20;;
8480;SDS011;4277;51.354;6.740;2023-03-23T06:40:52;4.43;;;2.20;;
8480;SDS011;4277;51.354;6.740;2023-03-23T06:43:19;4.17;;;2.20;;
8480;SDS011;4277;51.354;6.740;2023-03-23T06:45:45;3.53;;;2.47;;
8480;SDS011;4277;51.354;6.740;2023-03-23T06:48:11;4.17;;;2.10;;
8480;SDS011;4277;51.354;6.740;2023-03-23T06:50:37;4.00;;;2.30;;
8480;SDS011;4277;51.354;6.740;2023-03-23T06:53:03;2.43;;;1.90;;
8480;SDS011;4277;51.354;6.740;2023-03-23T06:55:29;3.23;;;2.13;;
8480;SDS011;4277;51.354;6.740;2023-03-23T06:57:55;8.83;;;2.20;;
8480;SDS011;4277;51.354;6.740;2023-03-23T07:00:21;5.87;;;1.93;;
8480;SDS011;4277;51.354;6.740;2023-03-23T07:02:47;2.53;;;1.90;;
8480;SDS011;4277;51.354;6.740;2023-03-23T07:05:13;4.60;;;2.00;;
8480;SDS011;4277;51.354;6.740;2023-03-23T07:07:39;4.13;;;1.97;;
8480;SDS011;4277;51.354;6.740;2023-03-23T07:10:06;4.37;;;2.00;;
8480;SDS011;4277;51.354;6.740;2023-03-23T07:12:34;3.20;;;1.80;;
8480;SDS011;4277;51.354;6.740;2023-03-23T07:15:00;4.20;;;1.70;;
8480;SDS011;4277;51.354;6.740;2023-03-23T07:17:27;4.00;;;1.90;;
8480;SDS011;4277;51.354;6.740;2023-03-23T07:19:53;3.67;;;1.70;;
8480;SDS011;4277;51.354;6.740;2023-03-23T07:22:19;3.70;;;2.10;;
8480;SDS011;4277;51.354;6.740;2023-03-23T07:24:45;4.43;;;2.10;;
8480;SDS011;4277;51.354;6.740;2023-03-23T07:27:11;4.40;;;1.90;;
8480;SDS011;4277;51.354;6.740;2023-03-23T07:29:37;3.73;;;1.80;;
8480;SDS011;4277;51.354;6.740;2023-03-23T07:32:04;4.50;;;1.80;;
8480;SDS011;4277;51.354;6.740;2023-03-23T07:34:30;5.83;;;1.97;;
8480;SDS011;4277;51.354;6.740;2023-03-23T07:36:56;4.00;;;1.70;;
8480;SDS011;4277;51.354;6.740;2023-03-23T07:39:22;2.70;;;1.93;;
8480;SDS011;4277;51.354;6.740;2023-03-23T07:41:49;3.27;;;1.70;;
8480;SDS011;4277;51.354;6.740;2023-03-23T07:44:15;4.33;;;1.87;;
8480;SDS011;4277;51.354;6.740;2023-03-23T07:46:41;3.23;;;1.70;;
8480;SDS011;4277;51.354;6.740;2023-03-23T07:49:08;4.10;;;1.70;;
8480;SDS011;4277;51.354;6.740;2023-03-23T07:51:34;3.23;;;1.77;;
8480;SDS011;4277;51.354;6.740;2023-03-23T07:54:00;2.30;;;1.50;;
8480;SDS011;4277;51.354;6.740;2023-03-23T07:56:30;4.60;;;1.70;;
8480;SDS011;4277;51.354;6.740;2023-03-23T07:58:56;2.73;;;1.40;;
8480;SDS011;4277;51.354;6.740;2023-03-23T08:01:22;3.50;;;1.67;;
8480;SDS011;4277;51.354;6.740;2023-03-23T08:03:49;3.47;;;2.00;;
8480;SDS011;4277;51.354;6.740;2023-03-23T08:06:16;3.80;;;1.50;;
8480;SDS011;4277;51.354;6.740;2023-03-23T08:08:42;4.73;;;1.80;;
8480;SDS011;4277;51.354;6.740;2023-03-23T08:11:08;2.83;;;1.40;;
8480;SDS011;4277;51.354;6.740;2023-03-23T08:13:34;2.07;;;1.23;;
8480;SDS011;4277;51.354;6.740;2023-03-23T08:16:00;3.43;;;1.67;;
8480;SDS011;4277;51.354;6.740;2023-03-23T08:18:30;2.87;;;1.50;;
8480;SDS011;4277;51.354;6.740;2023-03-23T08:20:56;4.37;;;1.60;;
8480;SDS011;4277;51.354;6.740;2023-03-23T08:23:22;2.23;;;1.43;;
8480;SDS011;4277;51.354;6.740;2023-03-23T08:25:48;5.47;;;1.70;;
8480;SDS011;4277;51.354;6.740;2023-03-23T08:28:14;3.93;;;1.67;;
8480;SDS011;4277;51.354;6.740;2023-03-23T08:30:40;2.80;;;1.53;;
8480;SDS011;4277;51.354;6.740;2023-03-23T08:33:07;4.63;;;1.80;;
8480;SDS011;4277;51.354;6.740;2023-03-23T08:35:35;5.03;;;1.30;;
8480;SDS011;4277;51.354;6.740;2023-03-23T08:38:01;4.30;;;1.70;;
8480;SDS011;4277;51.354;6.740;2023-03-23T08:40:28;4.03;;;1.50;;
8480;SDS011;4277;51.354;6.740;2023-03-23T08:42:54;2.23;;;1.30;;
8480;SDS011;4277;51.354;6.740;2023-03-23T08:45:21;4.03;;;1.70;;
8480;SDS011;4277;51.354;6.740;2023-03-23T08:47:48;3.67;;;1.33;;
8480;SDS011;4277;51.354;6.740;2023-03-23T08:50:17;3.53;;;1.60;;
8480;SDS011;4277;51.354;6.740;2023-03-23T08:52:43;2.87;;;1.40;;
8480;SDS011;4277;51.354;6.740;2023-03-23T08:55:09;3.40;;;1.53;;
8480;SDS011;4277;51.354;6.740;2023-03-23T08:57:36;3.83;;;1.50;;
8480;SDS011;4277;51.354;6.740;2023-03-23T09:00:03;4.03;;;1.90;;
8480;SDS011;4277;51.354;6.740;2023-03-23T09:02:38;4.40;;;1.70;;
8480;SDS011;4277;51.354;6.740;2023-03-23T09:05:04;4.67;;;1.70;;
8480;SDS011;4277;51.354;6.740;2023-03-23T09:07:31;5.37;;;1.90;;
8480;SDS011;4277;51.354;6.740;2023-03-23T09:09:57;4.97;;;1.50;;
8480;SDS011;4277;51.354;6.740;2023-03-23T09:12:23;4.60;;;1.70;;
8480;SDS011;4277;51.354;6.740;2023-03-23T09:14:49;2.83;;;1.40;;
8480;SDS011;4277;51.354;6.740;2023-03-23T09:17:15;5.00;;;1.30;;
8480;SDS011;4277;51.354;6.740;2023-03-23T09:19:41;3.20;;;1.50;;
8480;SDS011;4277;51.354;6.740;2023-03-23T09:22:07;4.50;;;1.50;;
8480;SDS011;4277;51.354;6.740;2023-03-23T09:24:33;5.40;;;1.60;;
8480;SDS011;4277;51.354;6.740;2023-03-23T09:26:59;6.13;;;1.50;;
8480;SDS011;4277;51.354;6.740;2023-03-23T09:29:26;5.87;;;1.93;;
8480;SDS011;4277;51.354;6.740;2023-03-23T09:31:53;5.70;;;1.70;;
8480;SDS011;4277;51.354;6.740;2023-03-23T09:34:19;4.43;;;1.70;;
8480;SDS011;4277;51.354;6.740;2023-03-23T09:36:44;5.37;;;1.60;;
8480;SDS011;4277;51.354;6.740;2023-03-23T09:39:11;4.47;;;1.63;;
8480;SDS011;4277;51.354;6.740;2023-03-23T09:49:23;3.40;;;1.10;;
8480;SDS011;4277;51.354;6.740;2023-03-23T09:51:53;4.67;;;1.30;;
8480;SDS011;4277;51.354;6.740;2023-03-23T09:56:52;3.97;;;1.27;;
8480;SDS011;4277;51.354;6.740;2023-03-23T10:01:52;2.70;;;1.00;;
8480;SDS011;4277;51.354;6.740;2023-03-23T10:04:34;1.93;;;0.87;;
8480;SDS011;4277;51.354;6.740;2023-03-23T10:07:16;2.17;;;0.80;;
8480;SDS011;4277;51.354;6.740;2023-03-23T10:09:43;2.00;;;0.90;;
8480;SDS011;4277;51.354;6.740;2023-03-23T10:12:23;3.90;;;1.00;;
8480;SDS011;4277;51.354;6.740;2023-03-23T10:22:29;2.60;;;1.40;;
8480;SDS011;4277;51.354;6.740;2023-03-23T10:25:01;3.43;;;1.13;;
8480;SDS011;4277;51.354;6.740;2023-03-23T10:32:39;3.80;;;1.50;;
8480;SDS011;4277;51.354;6.740;2023-03-23T10:35:07;3.90;;;1.43;;
8480;SDS011;4277;51.354;6.740;2023-03-23T10:37:40;2.93;;;1.33;;
8480;SDS011;4277;51.354;6.740;2023-03-23T10:40:18;3.50;;;1.37;;
8480;SDS011;4277;51.354;6.740;2023-03-23T10:42:45;4.57;;;1.30;;
8480;SDS011;4277;51.354;6.740;2023-03-23T10:47:39;2.80;;;1.20;;
8480;SDS011;4277;51.354;6.740;2023-03-23T10:50:10;2.57;;;1.40;;
8480;SDS011;4277;51.354;6.740;2023-03-23T10:52:39;3.23;;;1.80;;
8480;SDS011;4277;51.354;6.740;2023-03-23T10:55:13;2.63;;;1.60;;
8480;SDS011;4277;51.354;6.740;2023-03-23T10:57:40;4.00;;;1.90;;
8480;SDS011;4277;51.354;6.740;2023-03-23T11:00:15;2.87;;;1.60;;
8480;SDS011;4277;51.354;6.740;2023-03-23T11:03:02;4.13;;;1.90;;
8480;SDS011;4277;51.354;6.740;2023-03-23T11:05:34;3.90;;;2.27;;
8480;SDS011;4277;51.354;6.740;2023-03-23T11:08:00;3.17;;;1.70;;
8480;SDS011;4277;51.354;6.740;2023-03-23T11:10:28;2.87;;;1.40;;
8480;SDS011;4277;51.354;6.740;2023-03-23T11:12:57;3.33;;;1.20;;
8480;SDS011;4277;51.354;6.740;2023-03-23T11:15:29;3.20;;;1.23;;
8480;SDS011;4277;51.354;6.740;2023-03-23T11:17:57;4.47;;;1.30;;
8480;SDS011;4277;51.354;6.740;2023-03-23T11:20:24;3.40;;;1.10;;
8480;SDS011;4277;51.354;6.740;2023-03-23T11:22:51;2.63;;;0.90;;
8480;SDS011;4277;51.354;6.740;2023-03-23T11:25:17;2.83;;;1.00;;
8480;SDS011;4277;51.354;6.740;2023-03-23T11:27:43;1.87;;;1.10;;
8480;SDS011;4277;51.354;6.740;2023-03-23T11:30:11;1.83;;;1.07;;
8480;SDS011;4277;51.354;6.740;2023-03-23T11:32:44;2.40;;;0.90;;
8480;SDS011;4277;51.354;6.740;2023-03-23T11:35:15;3.70;;;0.90;;
8480;SDS011;4277;51.354;6.740;2023-03-23T11:37:43;2.33;;;0.97;;
8480;SDS011;4277;51.354;6.740;2023-03-23T11:40:15;2.97;;;1.10;;
8480;SDS011;4277;51.354;6.740;2023-03-23T11:43:07;3.53;;;1.10;;
8480;SDS011;4277;51.354;6.740;2023-03-23T11:45:33;2.37;;;1.20;;
8480;SDS011;4277;51.354;6.740;2023-03-23T11:58:19;3.20;;;1.20;;
8480;SDS011;4277;51.354;6.740;2023-03-23T12:03:12;1.53;;;1.20;;
8480;SDS011;4277;51.354;6.740;2023-03-23T12:05:56;2.13;;;1.33;;
8480;SDS011;4277;51.354;6.740;2023-03-23T12:13:55;2.43;;;1.37;;
8480;SDS011;4277;51.354;6.740;2023-03-23T12:16:30;2.57;;;1.60;;
8480;SDS011;4277;51.354;6.740;2023-03-23T12:21:41;2.07;;;1.63;;
8480;SDS011;4277;51.354;6.740;2023-03-23T12:26:41;2.67;;;1.67;;
8480;SDS011;4277;51.354;6.740;2023-03-23T12:34:40;3.10;;;1.80;;
8480;SDS011;4277;51.354;6.740;2023-03-23T12:39:37;2.10;;;1.87;;
8480;SDS011;4277;51.354;6.740;2023-03-23T12:42:12;2.43;;;1.90;;
8480;SDS011;4277;51.354;6.740;2023-03-23T12:44:46;3.17;;;2.10;;
8480;SDS011;4277;51.354;6.740;2023-03-23T12:49:46;4.23;;;2.10;;
8480;SDS011;4277;51.354;6.740;2023-03-23T12:55:21;3.67;;;1.80;;
8480;SDS011;4277;51.354;6.740;2023-03-23T12:57:56;2.30;;;1.63;;
8480;SDS011;4277;51.354;6.740;2023-03-23T13:00:29;4.53;;;1.70;;
8480;SDS011;4277;51.354;6.740;2023-03-23T13:03:14;4.17;;;1.70;;
8480;SDS011;4277;51.354;6.740;2023-03-23T13:08:30;3.73;;;1.50;;
8480;SDS011;4277;51.354;6.740;2023-03-23T13:10:59;4.10;;;1.60;;
8480;SDS011;4277;51.354;6.740;2023-03-23T13:13:42;5.53;;;1.50;;
8480;SDS011;4277;51.354;6.740;2023-03-23T13:19:00;5.30;;;1.40;;
8480;SDS011;4277;51.354;6.740;2023-03-23T13:21:30;2.00;;;1.30;;
8480;SDS011;4277;51.354;6.740;2023-03-23T13:24:04;4.57;;;1.43;;
8480;SDS011;4277;51.354;6.740;2023-03-23T13:26:31;3.53;;;1.77;;
8480;SDS011;4277;51.354;6.740;2023-03-23T13:29:01;3.77;;;1.50;;
8480;SDS011;4277;51.354;6.740;2023-03-23T13:31:34;4.60;;;1.67;;
8480;SDS011;4277;51.354;6.740;2023-03-23T13:34:02;3.07;;;1.50;;
8480;SDS011;4277;51.354;6.740;2023-03-23T13:36:30;2.10;;;1.47;;
8480;SDS011;4277;51.354;6.740;2023-03-23T13:38:57;3.37;;;1.80;;
8480;SDS011;4277;51.354;6.740;2023-03-23T13:41:24;5.67;;;1.70;;
8480;SDS011;4277;51.354;6.740;2023-03-23T13:43:51;3.57;;;1.90;;
8480;SDS011;4277;51.354;6.740;2023-03-23T13:48:45;4.37;;;2.13;;
8480;SDS011;4277;51.354;6.740;2023-03-23T13:53:49;4.07;;;2.30;;
8480;SDS011;4277;51.354;6.740;2023-03-23T13:59:05;3.20;;;2.30;;
8480;SDS011;4277;51.354;6.740;2023-03-23T14:01:33;3.37;;;2.00;;
8480;SDS011;4277;51.354;6.740;2023-03-23T14:04:00;7.87;;;2.30;;
8480;SDS011;4277;51.354;6.740;2023-03-23T14:06:32;4.03;;;2.40;;
8480;SDS011;4277;51.354;6.740;2023-03-23T14:09:04;3.20;;;2.57;;
8480;SDS011;4277;51.354;6.740;2023-03-23T14:11:31;5.90;;;2.43;;
8480;SDS011;4277;51.354;6.740;2023-03-23T14:14:03;3.57;;;2.23;;
8480;SDS011;4277;51.354;6.740;2023-03-23T14:16:38;3.30;;;2.50;;
8480;SDS011;4277;51.354;6.740;2023-03-23T14:19:13;2.43;;;2.20;;
8480;SDS011;4277;51.354;6.740;2023-03-23T14:21:41;4.97;;;2.67;;
8480;SDS011;4277;51.354;6.740;2023-03-23T14:26:36;3.67;;;2.50;;
8480;SDS011;4277;51.354;6.740;2023-03-23T14:29:03;3.73;;;2.60;;
8480;SDS011;4277;51.354;6.740;2023-03-23T14:31:30;3.87;;;2.40;;
8480;SDS011;4277;51.354;6.740;2023-03-23T14:33:56;2.83;;;2.43;;
8480;SDS011;4277;51.354;6.740;2023-03-23T14:36:27;5.70;;;2.20;;
8480;SDS011;4277;51.354;6.740;2023-03-23T14:39:35;2.43;;;1.80;;
8480;SDS011;4277;51.354;6.740;2023-03-23T14:41:42;3.07;;;2.00;;
8480;SDS011;4277;51.354;6.740;2023-03-23T14:44:18;3.20;;;1.87;;
8480;SDS011;4277;51.354;6.740;2023-03-23T14:46:46;5.17;;;2.07;;
8480;SDS011;4277;51.354;6.740;2023-03-23T14:49:14;2.63;;;1.73;;
8480;SDS011;4277;51.354;6.740;2023-03-23T14:51:54;3.27;;;1.80;;
8480;SDS011;4277;51.354;6.740;2023-03-23T14:54:31;2.80;;;1.60;;
8480;SDS011;4277;51.354;6.740;2023-03-23T14:57:02;2.63;;;1.40;;
8480;SDS011;4277;51.354;6.740;2023-03-23T14:59:28;2.27;;;1.27;;
8480;SDS011;4277;51.354;6.740;2023-03-23T15:01:55;3.97;;;1.50;;
8480;SDS011;4277;51.354;6.740;2023-03-23T15:04:23;3.60;;;1.40;;
8480;SDS011;4277;51.354;6.740;2023-03-23T15:06:51;2.20;;;1.40;;
8480;SDS011;4277;51.354;6.740;2023-03-23T15:09:20;2.97;;;1.20;;
8480;SDS011;4277;51.354;6.740;2023-03-23T15:11:51;3.00;;;1.30;;
8480;SDS011;4277;51.354;6.740;2023-03-23T15:14:19;5.97;;;1.63;;
8480;SDS011;4277;51.354;6.740;2023-03-23T15:16:47;2.80;;;1.60;;
8480;SDS011;4277;51.354;6.740;2023-03-23T15:19:19;2.90;;;1.50;;
8480;SDS011;4277;51.354;6.740;2023-03-23T15:21:47;3.63;;;1.70;;
8480;SDS011;4277;51.354;6.740;2023-03-23T15:24:20;3.33;;;1.60;;
8480;SDS011;4277;51.354;6.740;2023-03-23T15:26:46;4.83;;;2.20;;
8480;SDS011;4277;51.354;6.740;2023-03-23T15:29:17;4.07;;;1.90;;
8480;SDS011;4277;51.354;6.740;2023-03-23T15:31:48;5.77;;;2.10;;
8480;SDS011;4277;51.354;6.740;2023-03-23T15:34:24;2.20;;;1.53;;
8480;SDS011;4277;51.354;6.740;2023-03-23T15:36:55;5.33;;;2.00;;
8480;SDS011;4277;51.354;6.740;2023-03-23T15:39:21;5.73;;;2.10;;
8480;SDS011;4277;51.354;6.740;2023-03-23T15:41:49;5.77;;;1.87;;
8480;SDS011;4277;51.354;6.740;2023-03-23T15:44:31;4.33;;;1.80;;
8480;SDS011;4277;51.354;6.740;2023-03-23T15:47:02;4.47;;;1.60;;
8480;SDS011;4277;51.354;6.740;2023-03-23T15:49:28;4.63;;;1.70;;
8480;SDS011;4277;51.354;6.740;2023-03-23T15:51:54;5.20;;;1.90;;
8480;SDS011;4277;51.354;6.740;2023-03-23T15:54:20;3.10;;;1.40;;
8480;SDS011;4277;51.354;6.740;2023-03-23T15:56:46;4.97;;;1.90;;
8480;SDS011;4277;51.354;6.740;2023-03-23T15:59:12;3.10;;;1.70;;
8480;SDS011;4277;51.354;6.740;2023-03-23T16:01:39;4.00;;;1.87;;
8480;SDS011;4277;51.354;6.740;2023-03-23T16:04:06;4.50;;;2.30;;
8480;SDS011;4277;51.354;6.740;2023-03-23T16:06:33;7.03;;;2.03;;
8480;SDS011;4277;51.354;6.740;2023-03-23T16:09:00;4.67;;;1.70;;
8480;SDS011;4277;51.354;6.740;2023-03-23T16:11:28;6.07;;;2.20;;
8480;SDS011;4277;51.354;6.740;2023-03-23T16:13:55;5.17;;;2.00;;
8480;SDS011;4277;51.354;6.740;2023-03-23T16:16:24;4.07;;;1.90;;
8480;SDS011;4277;51.354;6.740;2023-03-23T16:18:51;4.97;;;1.87;;
8480;SDS011;4277;51.354;6.740;2023-03-23T16:21:17;3.73;;;1.90;;
8480;SDS011;4277;51.354;6.740;2023-03-23T16:23:43;4.77;;;1.97;;
8480;SDS011;4277;51.354;6.740;2023-03-23T16:26:10;5.43;;;2.00;;
8480;SDS011;4277;51.354;6.740;2023-03-23T16:28:36;6.97;;;2.30;;
8480;SDS011;4277;51.354;6.740;2023-03-23T16:31:02;3.57;;;1.90;;
8480;SDS011;4277;51.354;6.740;2023-03-23T16:33:28;3.07;;;1.67;;
8480;SDS011;4277;51.354;6.740;2023-03-23T16:35:54;3.03;;;1.90;;
8480;SDS011;4277;51.354;6.740;2023-03-23T16:38:22;3.87;;;1.90;;
8480;SDS011;4277;51.354;6.740;2023-03-23T16:40:48;3.77;;;1.97;;
8480;SDS011;4277;51.354;6.740;2023-03-23T16:43:14;4.80;;;1.90;;
8480;SDS011;4277;51.354;6.740;2023-03-23T16:45:40;5.27;;;1.93;;
8480;SDS011;4277;51.354;6.740;2023-03-23T16:48:07;3.63;;;2.00;;
8480;SDS011;4277;51.354;6.740;2023-03-23T16:50:33;4.30;;;1.93;;
8480;SDS011;4277;51.354;6.740;2023-03-23T16:53:00;5.17;;;2.17;;
8480;SDS011;4277;51.354;6.740;2023-03-23T16:55:26;4.87;;;2.00;;
8480;SDS011;4277;51.354;6.740;2023-03-23T16:57:52;4.37;;;1.83;;
8480;SDS011;4277;51.354;6.740;2023-03-23T17:00:19;4.47;;;2.23;;
8480;SDS011;4277;51.354;6.740;2023-03-23T17:02:46;3.33;;;1.70;;